Time;durP1;ratioP1;P1;durP2;ratioP2;P2;SDS_P1;SDS_P2;PMS_P1;PMS_P2;Temp;Humidity;BMP_temperature;BMP_pressure;BME280_temperature;BME280_humidity;BME280_pressure;Samples;Min_cycle;Max_cycle;Signal;HPM_P1;HPM_P2
2023/10/31 00:01:05;;;;;;;4.57;1.50;;;12.90;99.90;;;;;;4264751;27;20042;-57
2023/10/31 00:03:08;;;;;;;4.93;1.48;;;12.80;99.90;;;;;;4265012;27;20055;-58
2023/10/31 00:05:10;;;;;;;3.25;1.40;;;12.80;99.90;;;;;;4264749;27;20042;-57
2023/10/31 00:07:12;;;;;;;4.53;2.00;;;12.80;99.90;;;;;;4266705;27;20483;-59
2023/10/31 00:09:14;;;;;;;5.22;1.52;;;12.60;99.90;;;;;;4267883;27;20077;-57
2023/10/31 00:11:16;;;;;;;5.70;2.10;;;12.70;99.90;;;;;;4268038;27;20070;-60
2023/10/31 00:13:18;;;;;;;6.47;1.63;;;12.80;99.90;;;;;;4266052;27;20082;-59
2023/10/31 00:15:24;;;;;;;4.28;1.45;;;12.80;99.90;;;;;;4265180;27;20047;-57
2023/10/31 00:17:26;;;;;;;4.78;1.55;;;12.80;99.90;;;;;;4264930;27;20125;-62
2023/10/31 00:19:29;;;;;;;5.00;1.70;;;12.80;99.90;;;;;;4265627;27;20084;-58
2023/10/31 00:21:31;;;;;;;8.25;1.70;;;12.80;99.90;;;;;;4264525;27;20039;-57
2023/10/31 00:23:33;;;;;;;5.95;1.70;;;12.80;99.90;;;;;;4264290;27;20407;-58
2023/10/31 00:25:35;;;;;;;3.90;1.63;;;12.80;99.90;;;;;;4264959;27;20480;-58
2023/10/31 00:27:37;;;;;;;8.15;1.83;;;12.80;99.90;;;;;;4264604;27;20391;-58
2023/10/31 00:29:39;;;;;;;6.05;1.70;;;12.80;99.90;;;;;;4264417;27;20064;-58
2023/10/31 00:31:42;;;;;;;8.00;2.10;;;12.80;99.90;;;;;;4264737;27;20507;-58
2023/10/31 00:33:44;;;;;;;4.18;1.38;;;12.80;99.90;;;;;;4264536;27;20385;-59
2023/10/31 00:35:47;;;;;;;8.63;2.03;;;12.80;99.90;;;;;;4264721;27;20043;-58
2023/10/31 00:37:49;;;;;;;3.72;1.35;;;12.90;99.90;;;;;;4264150;27;20046;-58
2023/10/31 00:39:51;;;;;;;5.13;1.52;;;12.80;99.90;;;;;;4264584;27;20469;-57
2023/10/31 00:41:53;;;;;;;8.25;1.73;;;12.70;99.90;;;;;;4264098;27;20046;-58
2023/10/31 00:43:55;;;;;;;4.20;1.55;;;12.80;99.90;;;;;;4264308;27;20039;-61
2023/10/31 00:45:57;;;;;;;7.13;1.45;;;12.80;99.90;;;;;;4264155;27;20074;-60
2023/10/31 00:48:05;;;;;;;5.00;1.48;;;12.70;99.90;;;;;;4264585;27;20479;-60
2023/10/31 00:50:08;;;;;;;4.45;1.55;;;12.70;99.90;;;;;;4264325;27;20465;-59
2023/10/31 00:52:11;;;;;;;4.03;1.65;;;12.70;99.90;;;;;;4263918;27;20480;-58
2023/10/31 00:54:13;;;;;;;6.65;1.88;;;12.80;99.90;;;;;;4264467;27;20099;-61
2023/10/31 00:56:15;;;;;;;11.80;2.15;;;12.80;99.90;;;;;;4264142;27;20130;-59
2023/10/31 00:58:17;;;;;;;6.18;1.70;;;12.70;99.90;;;;;;4264361;27;20050;-62
2023/10/31 01:00:20;;;;;;;9.93;1.65;;;12.90;99.90;;;;;;4264442;27;20500;-61
2023/10/31 01:02:22;;;;;;;7.80;1.70;;;13.00;99.90;;;;;;4264619;27;20050;-58
2023/10/31 01:04:26;;;;;;;3.80;1.52;;;13.10;99.90;;;;;;4265093;27;20081;-59
2023/10/31 01:06:28;;;;;;;10.25;1.73;;;13.20;99.90;;;;;;4266786;27;20102;-60
2023/10/31 01:08:30;;;;;;;4.88;1.60;;;13.10;99.90;;;;;;4267424;27;20042;-60
2023/10/31 01:10:32;;;;;;;4.10;1.35;;;13.00;99.90;;;;;;4267355;27;20043;-61
2023/10/31 01:12:34;;;;;;;9.52;1.67;;;12.90;99.90;;;;;;4267426;27;20047;-61
2023/10/31 01:14:36;;;;;;;8.55;2.20;;;12.80;99.90;;;;;;4267154;27;20049;-60
2023/10/31 01:16:39;;;;;;;7.05;1.92;;;12.70;99.90;;;;;;4267475;27;20055;-60
2023/10/31 01:18:41;;;;;;;5.97;1.70;;;12.70;99.90;;;;;;4267544;27;20074;-60
2023/10/31 01:20:45;;;;;;;6.78;1.98;;;12.70;99.90;;;;;;4266857;27;20042;-61
2023/10/31 01:22:47;;;;;;;6.45;1.60;;;12.80;99.90;;;;;;4267562;27;20099;-61
2023/10/31 01:24:49;;;;;;;6.70;2.20;;;12.70;99.90;;;;;;4270170;27;20106;-61
2023/10/31 01:26:51;;;;;;;6.88;2.25;;;12.70;99.90;;;;;;4269994;27;20049;-60
2023/10/31 01:28:54;;;;;;;8.15;2.28;;;12.70;99.90;;;;;;4268943;27;20054;-64
2023/10/31 01:30:56;;;;;;;9.45;1.98;;;12.70;99.90;;;;;;4248962;27;20071;-60
2023/10/31 01:32:58;;;;;;;4.82;1.73;;;12.60;99.90;;;;;;4267064;27;20067;-61
2023/10/31 01:35:00;;;;;;;10.55;1.92;;;12.60;99.90;;;;;;4266764;27;20043;-61
2023/10/31 01:37:04;;;;;;;4.75;1.67;;;12.60;99.90;;;;;;4267045;27;20043;-60
2023/10/31 01:39:07;;;;;;;7.25;2.05;;;12.50;99.90;;;;;;4266837;27;20042;-60
2023/10/31 01:41:09;;;;;;;9.70;2.00;;;12.60;99.90;;;;;;4266686;27;20519;-61
2023/10/31 01:43:12;;;;;;;7.30;1.70;;;12.50;99.90;;;;;;4266883;27;20046;-60
2023/10/31 01:45:14;;;;;;;9.52;1.70;;;12.50;99.90;;;;;;4266837;27;20428;-59
2023/10/31 01:47:16;;;;;;;10.95;2.42;;;12.50;99.90;;;;;;4266823;27;20046;-60
2023/10/31 01:49:18;;;;;;;6.70;1.95;;;12.40;99.90;;;;;;4266394;27;20471;-64
2023/10/31 01:51:20;;;;;;;6.63;1.83;;;12.30;99.90;;;;;;4266622;27;20046;-60
2023/10/31 01:53:25;;;;;;;13.82;1.90;;;12.30;99.90;;;;;;4266954;27;20043;-58
2023/10/31 01:55:29;;;;;;;17.05;2.28;;;12.20;99.90;;;;;;4266978;27;20077;-60
2023/10/31 01:57:31;;;;;;;5.47;1.60;;;12.20;99.90;;;;;;4267384;27;20042;-58
2023/10/31 01:59:33;;;;;;;8.27;2.00;;;12.20;99.90;;;;;;4268453;27;20045;-57
2023/10/31 02:01:39;;;;;;;11.18;1.85;;;12.10;99.90;;;;;;4268230;27;20134;-58
2023/10/31 02:03:42;;;;;;;6.78;2.17;;;12.10;99.90;;;;;;4266401;27;20051;-58
2023/10/31 02:05:45;;;;;;;5.90;1.83;;;12.20;99.90;;;;;;4248354;27;20480;-59
2023/10/31 02:07:47;;;;;;;8.20;2.25;;;12.10;99.90;;;;;;4266448;27;20388;-59
2023/10/31 02:09:52;;;;;;;6.30;2.22;;;12.00;99.90;;;;;;4266436;27;20039;-57
2023/10/31 02:11:54;;;;;;;6.93;1.98;;;12.00;99.90;;;;;;4266459;27;20058;-60
2023/10/31 02:13:56;;;;;;;5.80;1.92;;;12.00;99.90;;;;;;4248189;27;20431;-57
2023/10/31 02:15:58;;;;;;;8.50;2.03;;;12.00;99.90;;;;;;4266578;27;20075;-58
2023/10/31 02:18:00;;;;;;;9.45;2.20;;;11.90;99.90;;;;;;4265190;27;20127;-59
2023/10/31 02:20:02;;;;;;;6.70;2.25;;;11.90;99.90;;;;;;4266746;27;20400;-59
2023/10/31 02:22:06;;;;;;;9.00;1.90;;;12.00;99.90;;;;;;4266253;27;20055;-61
2023/10/31 02:24:08;;;;;;;9.50;1.83;;;12.10;99.90;;;;;;4267561;27;20458;-60
2023/10/31 02:26:10;;;;;;;9.50;2.58;;;12.10;99.90;;;;;;4266518;27;20122;-59
2023/10/31 02:28:12;;;;;;;7.15;2.22;;;12.10;99.90;;;;;;4266060;27;20038;-59
2023/10/31 02:30:14;;;;;;;9.48;2.53;;;12.20;99.90;;;;;;4266434;27;20464;-58
2023/10/31 02:32:17;;;;;;;10.32;1.95;;;12.20;99.90;;;;;;4266114;27;20070;-61
2023/10/31 02:34:19;;;;;;;10.13;2.65;;;12.10;99.90;;;;;;4265893;27;20572;-60
2023/10/31 02:36:23;;;;;;;6.07;2.17;;;12.10;99.90;;;;;;4266330;27;20499;-58
2023/10/31 02:38:26;;;;;;;9.70;2.70;;;12.10;99.90;;;;;;4266150;27;20047;-58
2023/10/31 02:40:28;;;;;;;6.65;2.70;;;12.00;99.90;;;;;;4265994;27;20077;-59
2023/10/31 02:42:31;;;;;;;11.48;2.70;;;12.00;99.90;;;;;;4265860;27;20138;-57
2023/10/31 02:44:32;;;;;;;8.57;2.95;;;12.00;99.90;;;;;;4266139;27;20501;-59
2023/10/31 02:46:38;;;;;;;9.57;2.47;;;12.00;99.90;;;;;;4266493;27;20555;-61
2023/10/31 02:48:40;;;;;;;9.60;3.05;;;12.00;99.90;;;;;;4266926;27;20138;-61
2023/10/31 02:50:41;;;;;;;5.13;2.35;;;12.00;99.90;;;;;;4265927;27;20049;-61
2023/10/31 02:52:43;;;;;;;7.97;2.20;;;12.10;99.90;;;;;;4265714;27;20043;-59
2023/10/31 02:54:47;;;;;;;8.18;2.80;;;12.20;99.90;;;;;;4265712;27;20039;-58
2023/10/31 02:56:49;;;;;;;8.48;2.33;;;12.20;99.90;;;;;;4265910;27;20480;-60
2023/10/31 02:58:51;;;;;;;10.55;2.70;;;12.10;99.90;;;;;;4266004;27;20058;-60
2023/10/31 03:00:53;;;;;;;4.97;2.08;;;12.10;99.90;;;;;;4247823;27;20047;-62
2023/10/31 03:02:55;;;;;;;14.63;2.90;;;12.20;99.90;;;;;;4246959;27;20117;-60
2023/10/31 03:04:58;;;;;;;9.15;2.70;;;12.10;99.90;;;;;;4265629;27;20085;-60
2023/10/31 03:07:00;;;;;;;8.95;2.65;;;12.20;99.90;;;;;;4266061;27;20130;-60
2023/10/31 03:09:02;;;;;;;11.70;2.65;;;12.20;99.90;;;;;;4265640;27;20043;-61
2023/10/31 03:11:05;;;;;;;7.72;2.50;;;12.30;99.90;;;;;;4265740;27;20498;-57
2023/10/31 03:13:09;;;;;;;9.40;3.22;;;12.30;99.90;;;;;;4265386;27;20043;-60
2023/10/31 03:15:11;;;;;;;11.50;2.83;;;12.30;99.90;;;;;;4246995;27;20050;-59
2023/10/31 03:17:13;;;;;;;8.70;3.05;;;12.40;99.90;;;;;;4264970;27;20126;-61
2023/10/31 03:19:15;;;;;;;8.20;2.33;;;12.40;99.90;;;;;;4265329;27;20480;-60
2023/10/31 03:21:18;;;;;;;8.32;2.97;;;12.40;99.90;;;;;;4265406;27;20049;-60
2023/10/31 03:23:21;;;;;;;4.80;2.40;;;12.40;99.90;;;;;;4265565;27;20043;-58
2023/10/31 03:25:23;;;;;;;8.52;3.08;;;12.50;99.90;;;;;;4247097;27;20043;-60
2023/10/31 03:27:27;;;;;;;10.73;2.70;;;12.50;99.90;;;;;;4265443;27;20043;-61
2023/10/31 03:29:29;;;;;;;11.55;3.03;;;12.40;99.90;;;;;;4265027;27;20049;-59
2023/10/31 03:31:31;;;;;;;7.65;2.85;;;12.50;99.90;;;;;;4264845;27;20042;-60
2023/10/31 03:33:33;;;;;;;8.52;3.40;;;12.40;99.90;;;;;;4246843;27;20047;-60
2023/10/31 03:35:35;;;;;;;8.30;2.35;;;12.40;99.90;;;;;;4265090;27;20043;-63
2023/10/31 03:37:41;;;;;;;6.18;2.63;;;12.50;99.90;;;;;;4264965;27;20111;-60
2023/10/31 03:39:43;;;;;;;7.68;2.70;;;12.60;99.90;;;;;;4265012;27;20066;-60
2023/10/31 03:41:46;;;;;;;10.25;2.67;;;12.60;99.90;;;;;;4264764;27;20137;-60
2023/10/31 03:43:50;;;;;;;10.27;2.55;;;12.60;99.90;;;;;;4264938;27;20125;-61
2023/10/31 03:45:52;;;;;;;13.82;3.80;;;12.70;99.90;;;;;;4264437;27;20514;-60
2023/10/31 03:47:54;;;;;;;7.85;2.88;;;12.70;99.90;;;;;;4265181;27;20198;-60
2023/10/31 03:49:56;;;;;;;7.15;2.90;;;12.70;99.90;;;;;;4246722;27;20491;-60
2023/10/31 03:51:59;;;;;;;11.68;3.10;;;12.60;99.90;;;;;;4265294;27;20100;-58
2023/10/31 03:54:01;;;;;;;11.35;3.22;;;12.60;99.90;;;;;;4265383;27;20042;-59
2023/10/31 03:56:03;;;;;;;11.50;3.03;;;12.60;99.90;;;;;;4264931;27;20125;-60
2023/10/31 03:58:05;;;;;;;12.73;3.50;;;12.60;99.90;;;;;;4264711;27;20047;-58
2023/10/31 04:00:11;;;;;;;8.38;2.50;;;12.50;99.90;;;;;;4264968;27;20399;-60
2023/10/31 04:02:13;;;;;;;9.82;3.17;;;12.50;99.90;;;;;;4264896;27;20117;-58
2023/10/31 04:04:15;;;;;;;15.32;3.35;;;12.50;99.90;;;;;;4264807;27;20068;-61
2023/10/31 04:06:17;;;;;;;12.48;3.67;;;12.70;99.90;;;;;;4246484;27;20123;-61
2023/10/31 04:08:19;;;;;;;10.40;2.78;;;12.70;99.90;;;;;;4264820;27;20403;-61
2023/10/31 04:10:21;;;;;;;8.98;2.75;;;12.80;99.90;;;;;;4264841;27;20043;-61
2023/10/31 04:12:23;;;;;;;13.05;2.88;;;12.80;99.90;;;;;;4264916;27;20046;-67
2023/10/31 04:14:25;;;;;;;8.18;3.38;;;12.60;99.90;;;;;;4264348;27;20503;-61
2023/10/31 04:16:29;;;;;;;7.35;2.60;;;12.60;99.90;;;;;;4264850;27;20042;-58
2023/10/31 04:18:32;;;;;;;12.57;3.00;;;12.60;99.90;;;;;;4264507;27;20039;-58
2023/10/31 04:20:34;;;;;;;10.32;2.80;;;12.60;99.90;;;;;;4264945;27;20654;-60
2023/10/31 04:22:37;;;;;;;7.60;3.08;;;12.70;99.90;;;;;;4264789;27;20042;-59
2023/10/31 04:24:39;;;;;;;12.07;3.28;;;12.50;99.90;;;;;;4266566;27;20078;-65
2023/10/31 04:26:41;;;;;;;11.35;2.90;;;12.50;99.90;;;;;;4268081;27;20079;-64
2023/10/31 04:28:43;;;;;;;11.52;3.35;;;12.60;99.90;;;;;;4267988;27;20051;-59
2023/10/31 04:30:45;;;;;;;7.38;3.10;;;12.70;99.90;;;;;;4267117;27;20042;-59
2023/10/31 04:32:48;;;;;;;7.80;3.17;;;12.80;99.90;;;;;;4247956;27;20580;-62
2023/10/31 04:34:50;;;;;;;8.07;3.10;;;12.70;99.90;;;;;;4265583;27;20103;-62
2023/10/31 04:36:53;;;;;;;12.30;2.97;;;12.70;99.90;;;;;;4265497;27;20088;-59
2023/10/31 04:38:55;;;;;;;14.35;3.47;;;12.70;99.90;;;;;;4265057;27;20051;-60
2023/10/31 04:40:57;;;;;;;7.25;2.75;;;12.70;99.90;;;;;;4249610;27;20057;-66
2023/10/31 04:42:59;;;;;;;7.70;2.50;;;12.80;99.90;;;;;;4269263;27;20051;-59
2023/10/31 04:45:02;;;;;;;7.82;2.97;;;12.80;99.90;;;;;;4269820;27;20055;-66
2023/10/31 04:47:04;;;;;;;7.20;2.65;;;12.80;99.90;;;;;;4269462;27;20047;-59
2023/10/31 04:49:08;;;;;;;7.28;2.80;;;12.80;99.90;;;;;;4249808;27;20046;-59
2023/10/31 04:51:10;;;;;;;8.32;2.83;;;12.90;99.90;;;;;;4267902;27;20130;-58
2023/10/31 04:53:12;;;;;;;7.30;3.00;;;12.80;99.90;;;;;;4267796;27;20050;-61
2023/10/31 04:55:14;;;;;;;8.65;2.85;;;12.70;99.90;;;;;;4267851;27;20047;-60
2023/10/31 04:57:19;;;;;;;10.38;3.40;;;12.90;99.90;;;;;;4267274;27;20482;-60
2023/10/31 04:59:21;;;;;;;8.93;2.78;;;12.90;99.90;;;;;;4266549;27;20043;-61
2023/10/31 05:01:24;;;;;;;7.45;2.90;;;12.90;99.90;;;;;;4268169;27;20053;-60
2023/10/31 05:03:26;;;;;;;8.57;2.88;;;13.00;99.90;;;;;;4267575;27;20093;-60
2023/10/31 05:05:30;;;;;;;10.05;3.20;;;13.00;99.90;;;;;;4267412;27;20072;-60
2023/10/31 05:07:32;;;;;;;10.05;2.47;;;12.80;99.90;;;;;;4267699;27;20070;-59
2023/10/31 05:09:35;;;;;;;10.07;3.47;;;12.80;99.90;;;;;;4249115;27;20463;-61
2023/10/31 05:11:37;;;;;;;6.82;3.30;;;12.90;99.90;;;;;;4267443;27;20117;-61
2023/10/31 05:13:39;;;;;;;5.35;2.67;;;12.80;99.90;;;;;;4248899;27;20047;-60
2023/10/31 05:15:42;;;;;;;7.13;2.65;;;12.90;99.90;;;;;;4267434;27;20113;-61
2023/10/31 05:17:44;;;;;;;10.48;2.92;;;12.80;99.90;;;;;;4267253;27;20178;-60
2023/10/31 05:19:46;;;;;;;9.73;2.90;;;12.80;99.90;;;;;;4267413;27;20047;-59
2023/10/31 05:21:49;;;;;;;5.93;2.90;;;12.80;99.90;;;;;;4267527;27;20038;-65
2023/10/31 05:23:51;;;;;;;8.10;3.35;;;12.90;99.90;;;;;;4270866;27;20045;-60
2023/10/31 05:25:55;;;;;;;7.60;2.97;;;12.80;99.90;;;;;;4270152;27;20193;-62
2023/10/31 05:27:57;;;;;;;9.98;3.20;;;12.90;99.90;;;;;;4267711;27;20035;-59
2023/10/31 05:29:59;;;;;;;8.88;3.50;;;12.90;99.90;;;;;;4269143;27;20054;-69
2023/10/31 05:32:01;;;;;;;10.02;3.72;;;12.90;99.90;;;;;;4270687;27;20410;-59
2023/10/31 05:34:03;;;;;;;8.60;3.47;;;12.90;99.90;;;;;;4269779;27;20117;-58
2023/10/31 05:36:06;;;;;;;8.73;3.97;;;12.90;99.90;;;;;;4269900;27;20043;-67
2023/10/31 05:38:11;;;;;;;6.47;3.08;;;12.90;99.90;;;;;;4269344;27;20131;-60
2023/10/31 05:40:14;;;;;;;6.30;3.20;;;13.00;99.90;;;;;;4270101;27;20196;-62
2023/10/31 05:42:16;;;;;;;8.43;3.30;;;13.00;99.90;;;;;;4268451;27;20085;-58
2023/10/31 05:44:18;;;;;;;8.52;3.50;;;13.00;99.90;;;;;;4269004;27;20053;-60
2023/10/31 05:46:20;;;;;;;8.38;3.17;;;13.00;99.90;;;;;;4268382;27;20502;-57
2023/10/31 05:48:23;;;;;;;9.57;3.25;;;12.90;99.90;;;;;;4249181;27;20075;-58
2023/10/31 05:50:25;;;;;;;8.52;3.80;;;13.00;99.90;;;;;;4266984;27;20070;-59
2023/10/31 05:52:28;;;;;;;8.18;3.78;;;13.00;99.90;;;;;;4266361;27;20073;-61
2023/10/31 05:54:31;;;;;;;11.02;3.90;;;13.00;99.90;;;;;;4266919;27;20054;-58
2023/10/31 05:56:34;;;;;;;11.15;4.22;;;13.00;99.90;;;;;;4266275;27;20457;-61
2023/10/31 05:58:37;;;;;;;9.18;3.70;;;13.00;99.90;;;;;;4266931;27;20051;-61
2023/10/31 06:00:42;;;;;;;10.85;3.88;;;12.90;99.90;;;;;;4267143;27;20043;-62
2023/10/31 06:02:44;;;;;;;10.25;3.78;;;13.00;99.90;;;;;;4266514;27;20560;-61
2023/10/31 06:04:46;;;;;;;12.77;3.90;;;13.00;99.90;;;;;;4266507;27;20458;-58
2023/10/31 06:06:48;;;;;;;8.63;3.33;;;13.00;99.90;;;;;;4266509;27;20042;-61
2023/10/31 06:08:50;;;;;;;10.57;3.67;;;13.00;99.90;;;;;;4266583;27;20134;-58
2023/10/31 06:10:55;;;;;;;9.27;3.60;;;12.90;99.90;;;;;;4266489;27;20472;-59
2023/10/31 06:12:57;;;;;;;9.80;3.47;;;12.90;99.90;;;;;;4266517;27;20118;-58
2023/10/31 06:14:59;;;;;;;8.85;3.30;;;13.00;99.90;;;;;;4266650;27;20121;-59
2023/10/31 06:17:01;;;;;;;9.32;3.55;;;13.00;99.90;;;;;;4267991;27;20170;-59
2023/10/31 06:19:03;;;;;;;8.18;3.55;;;13.00;99.90;;;;;;4267397;27;20045;-59
2023/10/31 06:21:05;;;;;;;12.88;3.33;;;13.00;99.90;;;;;;4267251;27;20061;-59
2023/10/31 06:23:10;;;;;;;7.55;3.10;;;13.10;99.90;;;;;;4267540;27;20047;-59
2023/10/31 06:25:12;;;;;;;9.70;3.50;;;13.10;99.90;;;;;;4266632;27;20149;-59
2023/10/31 06:27:16;;;;;;;7.78;3.35;;;13.10;99.90;;;;;;4266864;27;20046;-59
2023/10/31 06:29:18;;;;;;;14.25;3.50;;;13.10;99.90;;;;;;4266397;27;20047;-59
2023/10/31 06:31:41;;;;;;;10.93;3.35;;;13.20;99.90;;;;;;4266460;27;20046;-58
2023/10/31 06:33:43;;;;;;;5.72;2.88;;;13.20;99.90;;;;;;4266739;27;20043;-58
2023/10/31 06:35:45;;;;;;;7.55;3.08;;;13.20;99.90;;;;;;4266467;27;20483;-59
2023/10/31 06:37:47;;;;;;;13.02;3.38;;;13.20;99.90;;;;;;4266098;27;20122;-59
2023/10/31 06:39:51;;;;;;;11.48;3.00;;;13.20;99.90;;;;;;4265709;27;20047;-59
2023/10/31 06:41:55;;;;;;;9.48;2.40;;;13.20;99.90;;;;;;4265709;27;20055;-62
2023/10/31 06:43:59;;;;;;;6.88;2.55;;;13.30;99.90;;;;;;4265988;27;20042;-59
2023/10/31 06:46:03;;;;;;;8.77;2.70;;;13.30;99.90;;;;;;4265971;27;20054;-59
2023/10/31 06:48:08;;;;;;;8.63;2.78;;;13.40;99.90;;;;;;4266040;27;20119;-61
2023/10/31 06:50:10;;;;;;;;;;;13.50;99.90;;;;;;4266620;27;20526;-59
2023/10/31 06:52:12;;;;;;;11.82;3.13;;;13.50;99.90;;;;;;4266046;27;19930;-58
2023/10/31 06:54:14;;;;;;;10.35;3.15;;;13.50;99.90;;;;;;4265257;27;20053;-63
2023/10/31 06:56:17;;;;;;;8.10;2.30;;;13.50;99.90;;;;;;4266077;27;20038;-60
2023/10/31 06:58:19;;;;;;;13.13;2.78;;;13.40;99.90;;;;;;4266086;27;20082;-60
2023/10/31 07:00:22;;;;;;;8.57;2.00;;;13.40;99.90;;;;;;4265971;27;20456;-62
2023/10/31 07:02:25;;;;;;;6.32;2.15;;;13.40;99.90;;;;;;4268297;27;20042;-61
2023/10/31 07:04:28;;;;;;;7.60;2.28;;;13.40;99.90;;;;;;4266853;27;20059;-59
2023/10/31 07:06:30;;;;;;;7.10;2.67;;;13.40;99.90;;;;;;4266135;27;20043;-58
2023/10/31 07:08:34;;;;;;;7.10;2.42;;;13.40;99.90;;;;;;4265651;27;20054;-58
2023/10/31 07:10:36;;;;;;;9.25;2.47;;;13.40;99.90;;;;;;4265857;27;20039;-58
2023/10/31 07:12:38;;;;;;;8.35;2.20;;;13.50;99.90;;;;;;4265957;27;20050;-60
2023/10/31 07:14:40;;;;;;;9.35;1.95;;;13.40;99.90;;;;;;4265492;27;20127;-60
2023/10/31 07:16:44;;;;;;;5.95;1.98;;;13.40;99.90;;;;;;4265339;27;20053;-60
2023/10/31 07:18:46;;;;;;;5.43;2.03;;;13.40;99.90;;;;;;4265215;27;20038;-60
2023/10/31 07:20:48;;;;;;;7.43;2.20;;;13.40;99.90;;;;;;4265588;27;20046;-58
2023/10/31 07:22:50;;;;;;;6.10;1.80;;;13.40;99.90;;;;;;4265079;27;20134;-58
2023/10/31 07:24:52;;;;;;;10.05;2.45;;;13.50;99.90;;;;;;4265667;27;20408;-58
2023/10/31 07:26:55;;;;;;;6.22;1.77;;;13.50;99.90;;;;;;4266754;27;20046;-63
2023/10/31 07:28:57;;;;;;;8.02;1.80;;;13.50;99.90;;;;;;4266884;27;20051;-59
2023/10/31 07:31:00;;;;;;;9.38;2.30;;;13.70;99.90;;;;;;4247571;27;20577;-61
2023/10/31 07:33:04;;;;;;;8.70;2.03;;;13.70;99.90;;;;;;4265745;27;20540;-60
2023/10/31 07:35:07;;;;;;;7.22;2.00;;;13.70;99.90;;;;;;4267314;27;20049;-60
2023/10/31 07:37:09;;;;;;;11.02;2.45;;;13.70;99.90;;;;;;4265009;27;20059;-58
2023/10/31 07:39:12;;;;;;;6.72;2.28;;;13.80;99.90;;;;;;4265469;27;20050;-64
2023/10/31 07:41:16;;;;;;;6.03;2.25;;;13.90;99.90;;;;;;4265230;27;20090;-60
2023/10/31 07:43:18;;;;;;;7.97;1.98;;;13.80;99.90;;;;;;4265371;27;20547;-58
2023/10/31 07:45:20;;;;;;;12.30;2.20;;;13.80;99.90;;;;;;4265115;27;20049;-60
2023/10/31 07:47:22;;;;;;;10.55;2.25;;;13.80;99.90;;;;;;4265100;27;20073;-62
2023/10/31 07:49:26;;;;;;;9.77;2.30;;;13.60;99.90;;;;;;4265280;27;20066;-57
2023/10/31 07:51:28;;;;;;;15.63;2.88;;;13.60;99.90;;;;;;4264408;27;20045;-57
2023/10/31 07:53:30;;;;;;;13.07;2.40;;;13.60;99.90;;;;;;4265212;27;20042;-59
2023/10/31 07:55:32;;;;;;;5.95;2.00;;;13.70;99.90;;;;;;4246722;27;20156;-62
2023/10/31 07:57:34;;;;;;;8.15;2.33;;;13.70;99.90;;;;;;4264967;27;20588;-60
2023/10/31 07:59:36;;;;;;;7.43;1.92;;;13.70;99.90;;;;;;4264889;27;20111;-58
2023/10/31 08:01:38;;;;;;;8.05;2.10;;;13.60;99.90;;;;;;4265777;27;20117;-58
2023/10/31 08:03:40;;;;;;;11.25;2.70;;;13.60;99.90;;;;;;4266993;27;20433;-63
2023/10/31 08:05:44;;;;;;;6.25;1.98;;;13.70;99.90;;;;;;4265641;27;20042;-57
2023/10/31 08:07:46;;;;;;;8.30;2.00;;;13.60;99.90;;;;;;4266923;27;20042;-60
2023/10/31 08:09:48;;;;;;;7.40;2.60;;;13.70;99.90;;;;;;4248865;27;20529;-64
2023/10/31 08:11:50;;;;;;;8.40;1.75;;;13.70;99.90;;;;;;4266480;27;20053;-61
2023/10/31 08:13:53;;;;;;;11.73;2.72;;;13.70;99.90;;;;;;4266241;27;20042;-61
2023/10/31 08:15:56;;;;;;;7.78;1.88;;;13.70;99.90;;;;;;4267226;27;20055;-61
2023/10/31 08:17:58;;;;;;;7.15;1.83;;;13.70;99.90;;;;;;4267496;27;20044;-59
2023/10/31 08:20:03;;;;;;;7.35;2.13;;;13.80;99.90;;;;;;4267311;27;20050;-60
2023/10/31 08:22:06;;;;;;;4.60;1.77;;;13.80;99.90;;;;;;4267432;27;20043;-61
2023/10/31 08:24:10;;;;;;;6.50;2.00;;;13.80;99.90;;;;;;4250289;28;20051;-61
2023/10/31 08:26:12;;;;;;;9.25;2.13;;;13.80;99.90;;;;;;4249607;27;20067;-60
2023/10/31 08:28:15;;;;;;;6.78;1.90;;;13.90;99.90;;;;;;4268209;27;20491;-61
2023/10/31 08:30:17;;;;;;;4.22;1.70;;;13.90;99.90;;;;;;4268108;27;20046;-64
2023/10/31 08:32:19;;;;;;;5.63;1.85;;;13.90;99.90;;;;;;4266827;27;20480;-58
2023/10/31 08:34:21;;;;;;;7.45;1.92;;;14.00;99.90;;;;;;4266805;27;20057;-65
2023/10/31 08:36:23;;;;;;;6.47;2.00;;;14.00;99.90;;;;;;4265448;27;20047;-60
2023/10/31 08:38:28;;;;;;;11.85;2.33;;;14.10;99.90;;;;;;4264694;27;20068;-59
2023/10/31 08:40:33;;;;;;;7.28;2.28;;;14.10;99.90;;;;;;4264578;27;20069;-60
2023/10/31 08:42:35;;;;;;;6.18;1.98;;;14.00;99.90;;;;;;4264723;27;20103;-57
2023/10/31 08:44:40;;;;;;;8.52;2.03;;;14.00;99.90;;;;;;4264865;27;20088;-60
2023/10/31 08:46:42;;;;;;;7.25;1.77;;;14.10;99.90;;;;;;4264788;27;20057;-58
2023/10/31 08:48:44;;;;;;;8.32;1.90;;;14.20;99.90;;;;;;4264667;27;20065;-57
2023/10/31 08:50:46;;;;;;;7.90;2.20;;;14.20;99.90;;;;;;4264271;27;20053;-60
2023/10/31 08:52:48;;;;;;;7.85;2.15;;;14.20;99.90;;;;;;4264550;27;20047;-61
2023/10/31 08:54:52;;;;;;;7.30;1.50;;;14.30;99.90;;;;;;4264381;27;20126;-60
2023/10/31 08:56:54;;;;;;;8.57;1.63;;;14.20;99.90;;;;;;4264501;27;20428;-61
2023/10/31 08:58:56;;;;;;;7.45;1.63;;;14.20;99.90;;;;;;4264346;27;20053;-59
2023/10/31 09:00:58;;;;;;;5.47;1.60;;;14.30;99.90;;;;;;4264543;27;20404;-61
2023/10/31 09:03:00;;;;;;;7.65;1.40;;;14.40;99.90;;;;;;4264441;27;20042;-58
2023/10/31 09:05:03;;;;;;;6.00;1.98;;;14.50;99.90;;;;;;4264554;27;20042;-59
2023/10/31 09:07:05;;;;;;;9.45;3.42;;;14.40;99.90;;;;;;4264172;27;20296;-61
2023/10/31 09:09:10;;;;;;;6.00;1.83;;;14.30;99.90;;;;;;4245983;28;20053;-60
2023/10/31 09:11:13;;;;;;;5.97;2.28;;;14.40;99.90;;;;;;4264214;27;20456;-61
2023/10/31 09:13:16;;;;;;;6.22;2.22;;;14.40;99.90;;;;;;4264478;27;20087;-60
2023/10/31 09:15:18;;;;;;;7.80;2.20;;;14.30;99.90;;;;;;4264194;27;20102;-63
2023/10/31 09:17:20;;;;;;;11.38;2.67;;;14.40;99.90;;;;;;4264157;27;20087;-61
2023/10/31 09:19:23;;;;;;;7.93;2.85;;;14.40;99.90;;;;;;4245709;28;20471;-62
2023/10/31 09:21:25;;;;;;;12.43;3.17;;;14.40;99.90;;;;;;4264703;27;20046;-59
2023/10/31 09:23:27;;;;;;;10.00;3.75;;;14.40;99.90;;;;;;4265388;27;20051;-59
2023/10/31 09:25:30;;;;;;;8.00;3.65;;;14.40;99.90;;;;;;4266034;27;20043;-71
2023/10/31 09:27:34;;;;;;;11.10;2.78;;;14.40;99.90;;;;;;4268023;27;20043;-60
2023/10/31 09:29:36;;;;;;;8.48;3.00;;;14.30;99.90;;;;;;4267158;27;20134;-61
2023/10/31 09:31:38;;;;;;;7.07;1.98;;;14.30;99.90;;;;;;4267017;27;20047;-61
2023/10/31 09:33:40;;;;;;;10.10;3.28;;;14.30;99.90;;;;;;4266621;27;20129;-60
2023/10/31 09:35:43;;;;;;;13.27;4.15;;;14.20;99.90;;;;;;4267109;27;20050;-59
2023/10/31 09:37:48;;;;;;;9.43;2.35;;;14.30;99.90;;;;;;4267415;27;20139;-61
2023/10/31 09:39:50;;;;;;;7.97;2.38;;;14.40;99.90;;;;;;4267600;27;20063;-59
2023/10/31 09:41:53;;;;;;;11.88;3.65;;;14.40;99.90;;;;;;4267996;27;20138;-62
2023/10/31 09:43:57;;;;;;;5.90;2.00;;;14.40;99.90;;;;;;4267905;27;20444;-60
2023/10/31 09:46:03;;;;;;;7.05;2.33;;;14.50;99.90;;;;;;4269103;27;20540;-61
2023/10/31 09:48:06;;;;;;;9.23;2.47;;;14.60;99.90;;;;;;4268471;27;20058;-59
2023/10/31 09:50:09;;;;;;;9.57;2.53;;;14.60;99.90;;;;;;4266697;27;20053;-63
2023/10/31 09:52:11;;;;;;;8.25;2.72;;;14.50;99.90;;;;;;4267013;27;20089;-62
2023/10/31 09:54:16;;;;;;;8.45;2.65;;;14.60;99.90;;;;;;4266748;27;20476;-62
2023/10/31 09:56:18;;;;;;;;;;;14.60;99.90;;;;;;4267260;27;20043;-61
2023/10/31 09:58:20;;;;;;;7.00;2.00;;;15.00;99.90;;;;;;4266721;27;19919;-61
2023/10/31 10:00:24;;;;;;;6.13;2.13;;;15.30;99.90;;;;;;4266799;27;20099;-61
2023/10/31 10:02:26;;;;;;;7.53;2.20;;;15.30;99.90;;;;;;4266342;27;20051;-62
2023/10/31 10:04:29;;;;;;;10.05;2.40;;;15.40;99.90;;;;;;4266689;27;20064;-61
2023/10/31 10:06:32;;;;;;;11.02;1.90;;;15.50;99.90;;;;;;4266659;27;20046;-61
2023/10/31 10:08:37;;;;;;;11.48;1.83;;;15.80;99.90;;;;;;4266431;27;20125;-62
2023/10/31 10:10:39;;;;;;;8.38;1.80;;;15.90;99.90;;;;;;4266324;27;20107;-62
2023/10/31 10:12:43;;;;;;;6.50;1.80;;;15.90;99.90;;;;;;4266765;27;20067;-61
2023/10/31 10:14:46;;;;;;;6.88;2.00;;;16.00;99.90;;;;;;4266435;27;20047;-61
2023/10/31 10:16:49;;;;;;;7.40;1.95;;;16.00;99.90;;;;;;4266108;27;20039;-61
2023/10/31 10:18:52;;;;;;;11.13;2.47;;;15.90;99.90;;;;;;4266183;27;20293;-61
2023/10/31 10:20:58;;;;;;;10.38;3.17;;;16.00;99.90;;;;;;4266251;27;20069;-61
2023/10/31 10:23:04;;;;;;;7.10;2.20;;;16.10;99.90;;;;;;4266366;27;20098;-61
2023/10/31 10:25:07;;;;;;;9.13;2.28;;;16.10;99.90;;;;;;4266643;27;20456;-61
2023/10/31 10:27:09;;;;;;;7.93;1.92;;;16.10;99.90;;;;;;4267625;27;20046;-65
2023/10/31 10:29:12;;;;;;;6.80;2.03;;;16.20;99.90;;;;;;4268563;27;20125;-61
2023/10/31 10:31:15;;;;;;;4.97;1.70;;;16.30;99.90;;;;;;4268339;27;20671;-65
2023/10/31 10:33:18;;;;;;;10.60;1.90;;;16.30;99.90;;;;;;4267914;27;20047;-61
2023/10/31 10:35:20;;;;;;;6.38;1.88;;;16.20;99.90;;;;;;4250014;27;20094;-61
2023/10/31 10:37:23;;;;;;;4.97;1.95;;;16.30;99.90;;;;;;4266459;27;20403;-61